createdAt,value
2018-01-15T00:00:08.064Z,70.69
2018-01-15T00:01:08.042Z,70.78
2018-01-15T00:02:08.036Z,70.31
2018-01-15T00:03:08.016Z,70.69
2018-01-15T00:04:07.987Z,71.07
2018-01-15T00:05:07.968Z,70.5
2018-01-15T00:06:08.227Z,70.69
2018-01-15T00:07:08.220Z,71.07
2018-01-15T00:08:08.183Z,71.83
2018-01-15T00:09:07.890Z,72.02
2018-01-15T00:10:08.143Z,72.11
2018-01-15T00:11:07.867Z,72.11
2018-01-15T00:12:07.834Z,71.26
2018-01-15T00:13:07.816Z,71.64
2018-01-15T00:14:07.819Z,71.35
2018-01-15T00:15:07.778Z,71.35
2018-01-15T00:16:07.757Z,71.31
2018-01-15T00:17:07.739Z,70.75
2018-01-15T00:18:08.014Z,70.75
2018-01-15T00:19:07.700Z,71.22
2018-01-15T00:20:07.683Z,70.47
2018-01-15T00:21:07.932Z,70.37
2018-01-15T00:22:07.651Z,69.62
2018-01-15T00:23:07.627Z,69.33
2018-01-15T00:24:07.606Z,69.24
2018-01-15T00:25:07.589Z,69.14
2018-01-15T00:26:07.585Z,68.39
2018-01-15T00:27:07.549Z,68.2
2018-01-15T00:28:07.537Z,67.72
2018-01-15T00:29:07.532Z,67.82
2018-01-15T00:30:07.493Z,67.82
2018-01-15T00:31:07.475Z,67.16
2018-01-15T00:32:07.454Z,66.41
2018-01-15T00:33:07.437Z,64.51
2018-01-15T00:34:07.417Z,63.85
2018-01-15T00:35:07.397Z,63.85
2018-01-15T00:36:07.650Z,63.29
2018-01-15T00:37:07.632Z,62.91
2018-01-15T00:38:07.348Z,62.81
2018-01-15T00:39:07.322Z,62.31
2018-01-15T00:40:07.301Z,61.36
2018-01-15T00:41:07.283Z,61.46
2018-01-15T00:42:07.264Z,60.99
2018-01-15T00:43:07.517Z,59.57
2018-01-15T00:44:07.225Z,58.91
2018-01-15T00:45:07.208Z,58.34
2018-01-15T00:46:07.186Z,57.59
2018-01-15T00:47:07.168Z,57.31
2018-01-15T00:48:07.416Z,57.5
2018-01-15T00:49:07.127Z,57.4
2018-01-15T00:50:07.108Z,57.03
2018-01-15T00:51:07.089Z,56.65
2018-01-15T00:52:07.084Z,56.74
2018-01-15T00:53:07.050Z,56.08
2018-01-15T00:54:07.031Z,55.8
2018-01-15T00:55:07.012Z,55.23
2018-01-15T00:56:06.991Z,55.04
2018-01-15T00:57:07.250Z,55.8
2018-01-15T00:58:06.958Z,55.13
2018-01-15T00:59:06.933Z,54.94
2018-01-15T01:00:06.917Z,54.85
2018-01-15T01:01:06.907Z,54.47
2018-01-15T01:02:07.144Z,54.47
2018-01-15T01:03:07.151Z,54
2018-01-15T01:04:06.835Z,54
2018-01-15T01:05:06.819Z,53.91
2018-01-15T01:06:07.066Z,53.72
2018-01-15T01:07:07.045Z,53.91
2018-01-15T01:08:06.755Z,53.53
2018-01-15T01:09:06.756Z,53.25
2018-01-15T01:10:07.000Z,53.63
2018-01-15T01:11:06.696Z,53.44
2018-01-15T01:12:06.678Z,53.63
2018-01-15T01:13:06.671Z,52.78
2018-01-15T01:14:06.909Z,52.96
2018-01-15T01:15:06.887Z,52.96
2018-01-15T01:16:06.599Z,53.06
2018-01-15T01:17:06.581Z,52.4
2018-01-15T01:18:06.560Z,51.92
2018-01-15T01:19:06.540Z,52.02
2018-01-15T01:20:06.520Z,51.83
2018-01-15T01:21:06.702Z,51.83
2018-01-15T01:22:06.482Z,51.36
2018-01-15T01:23:06.460Z,51.45
2018-01-15T01:24:06.441Z,51.36
2018-01-15T01:25:06.421Z,51.26
2018-01-15T01:26:06.677Z,50.79
2018-01-15T01:27:06.652Z,50.6
2018-01-15T01:28:06.633Z,50.7
2018-01-15T01:29:06.343Z,51.26
2018-01-15T01:30:06.603Z,51.64
2018-01-15T01:31:06.577Z,51.45
2018-01-15T01:32:06.562Z,51.45
2018-01-15T01:33:06.281Z,51.73
2018-01-15T01:34:06.255Z,51.73
2018-01-15T01:35:06.495Z,51.92
2018-01-15T01:36:06.204Z,51.36
2018-01-15T01:37:06.185Z,51.17
2018-01-15T01:38:06.222Z,50.51
2018-01-15T01:39:06.144Z,50.23
2018-01-15T01:40:06.125Z,49.94
2018-01-15T01:41:06.125Z,49.66
2018-01-15T01:42:06.099Z,49.47
2018-01-15T01:43:06.064Z,49.66
2018-01-15T01:44:06.056Z,49.38
2018-01-15T01:45:06.025Z,49.38
2018-01-15T01:46:06.006Z,49.38
2018-01-15T01:47:05.984Z,49.38
2018-01-15T01:48:05.967Z,49.38
2018-01-15T01:49:06.217Z,49
2018-01-15T01:50:05.940Z,49.19
2018-01-15T01:51:06.186Z,49.19
2018-01-15T01:52:05.888Z,49.19
2018-01-15T01:53:05.867Z,49.19
2018-01-15T01:54:05.846Z,48.43
2018-01-15T01:55:05.834Z,48.52
2018-01-15T01:56:05.808Z,48.52
2018-01-15T01:57:05.786Z,48.34
2018-01-15T01:58:06.056Z,48.15
2018-01-15T01:59:06.034Z,47.67
2018-01-15T02:00:06.002Z,47.86
2018-01-15T02:01:05.997Z,47.58
2018-01-15T02:02:05.686Z,47.49
2018-01-15T02:03:05.668Z,47.49
2018-01-15T02:04:05.656Z,46.92
2018-01-15T02:05:05.631Z,46.83
2018-01-15T02:06:05.618Z,46.55
2018-01-15T02:07:05.867Z,46.45
2018-01-15T02:08:05.568Z,45.69
2018-01-15T02:09:05.547Z,45.41
2018-01-15T02:10:05.529Z,45.41
2018-01-15T02:11:05.508Z,45.13
2018-01-15T02:12:05.507Z,45.13
2018-01-15T02:13:05.737Z,45.13
2018-01-15T02:14:05.718Z,45.22
2018-01-15T02:15:05.429Z,45.13
2018-01-15T02:16:05.414Z,44.94
2018-01-15T02:17:05.387Z,45.22
2018-01-15T02:18:05.368Z,44.56
2018-01-15T02:19:05.363Z,44.65
2018-01-15T02:20:05.597Z,44.18
2018-01-15T02:21:05.309Z,43.99
2018-01-15T02:22:05.308Z,44.18
2018-01-15T02:23:05.278Z,44.56
2018-01-15T02:24:05.250Z,44.56
2018-01-15T02:25:05.229Z,44.56
2018-01-15T02:26:05.208Z,44.37
2018-01-15T02:27:05.188Z,44.46
2018-01-15T02:28:05.169Z,44.46
2018-01-15T02:29:05.150Z,43.9
2018-01-15T02:30:05.132Z,43.43
2018-01-15T02:31:05.111Z,42.86
2018-01-15T02:32:05.372Z,42.2
2018-01-15T02:33:05.069Z,42.58
2018-01-15T02:34:05.047Z,42.67
2018-01-15T02:35:05.304Z,42.67
2018-01-15T02:36:05.299Z,43.33
2018-01-15T02:37:04.988Z,43.24
2018-01-15T02:38:04.969Z,43.62
2018-01-15T02:39:04.954Z,43.52
2018-01-15T02:40:05.199Z,43.33
2018-01-15T02:41:05.178Z,43.24
2018-01-15T02:42:04.888Z,43.33
2018-01-15T02:43:04.869Z,43.33
2018-01-15T02:44:04.851Z,43.43
2018-01-15T02:45:05.103Z,43.8
2018-01-15T02:46:05.079Z,44.09
2018-01-15T02:47:04.788Z,43.43
2018-01-15T02:48:04.790Z,43.24
2018-01-15T02:49:04.747Z,42.67
2018-01-15T02:50:05.006Z,42.58
2018-01-15T02:51:04.725Z,42.39
2018-01-15T02:52:04.691Z,41.92
2018-01-15T02:53:04.667Z,42.01
2018-01-15T02:54:04.648Z,41.92
2018-01-15T02:55:04.900Z,41.92
2018-01-15T02:56:04.608Z,42.01
2018-01-15T02:57:04.588Z,42.58
2018-01-15T02:58:04.567Z,42.48
2018-01-15T02:59:04.827Z,42.39
2018-01-15T03:00:04.527Z,42.58
2018-01-15T03:01:04.508Z,42.58
2018-01-15T03:02:04.491Z,42.77
2018-01-15T03:03:04.750Z,42.48
2018-01-15T03:04:04.719Z,42.2
2018-01-15T03:05:04.432Z,41.92
2018-01-15T03:06:04.411Z,41.73
2018-01-15T03:07:04.390Z,41.82
2018-01-15T03:08:04.370Z,41.73
2018-01-15T03:09:04.618Z,41.73
2018-01-15T03:10:04.329Z,41.25
2018-01-15T03:11:04.314Z,41.82
2018-01-15T03:12:04.560Z,41.82
2018-01-15T03:13:04.545Z,41.44
2018-01-15T03:14:04.249Z,41.54
2018-01-15T03:15:04.227Z,41.63
2018-01-15T03:16:04.209Z,41.54
2018-01-15T03:17:04.190Z,41.73
2018-01-15T03:18:04.168Z,41.92
2018-01-15T03:19:04.148Z,41.92
2018-01-15T03:20:04.128Z,41.92
2018-01-15T03:21:04.380Z,41.54
2018-01-15T03:22:04.089Z,41.54
2018-01-15T03:23:04.355Z,41.82
2018-01-15T03:24:04.047Z,41.16
2018-01-15T03:25:04.312Z,40.97
2018-01-15T03:26:04.289Z,41.25
2018-01-15T03:27:03.988Z,41.25
2018-01-15T03:28:03.968Z,41.06
2018-01-15T03:29:03.968Z,40.97
2018-01-15T03:30:03.929Z,40.69
2018-01-15T03:31:03.909Z,40.97
2018-01-15T03:32:03.888Z,41.35
2018-01-15T03:33:04.140Z,40.97
2018-01-15T03:34:03.867Z,40.78
2018-01-15T03:35:03.827Z,40.5
2018-01-15T03:36:03.809Z,40.59
2018-01-15T03:37:03.789Z,40.5
2018-01-15T03:38:04.039Z,40.59
2018-01-15T03:39:03.749Z,41.82
2018-01-15T03:40:03.727Z,41.63
2018-01-15T03:41:04.064Z,41.73
2018-01-15T03:42:03.963Z,42.11
2018-01-15T03:43:03.668Z,41.82
2018-01-15T03:44:03.661Z,41.63
2018-01-15T03:45:03.632Z,41.73
2018-01-15T03:46:03.879Z,41.63
2018-01-15T03:47:03.857Z,41.44
2018-01-15T03:48:03.573Z,41.25
2018-01-15T03:49:03.547Z,40.78
2018-01-15T03:50:03.527Z,41.16
2018-01-15T03:51:03.777Z,40.69
2018-01-15T03:52:03.757Z,40.41
2018-01-15T03:53:03.516Z,40.59
2018-01-15T03:54:03.722Z,40.69
2018-01-15T03:55:03.698Z,40.5
2018-01-15T03:56:03.683Z,40.31
2018-01-15T03:57:03.388Z,40.59
2018-01-15T03:58:03.369Z,40.31
2018-01-15T03:59:03.625Z,40.22
2018-01-15T04:00:03.617Z,40.22
2018-01-15T04:01:03.307Z,40.5
2018-01-15T04:02:03.683Z,40.12
2018-01-15T04:03:03.566Z,39.75
2018-01-15T04:04:03.534Z,39.46
2018-01-15T04:05:03.259Z,39.84
2018-01-15T04:06:03.216Z,39.28
2018-01-15T04:07:03.458Z,38.71
2018-01-15T04:08:03.439Z,38.42
2018-01-15T04:09:03.146Z,38.61
2018-01-15T04:10:03.130Z,38.61
2018-01-15T04:11:03.377Z,38.52
2018-01-15T04:12:03.102Z,38.42
2018-01-15T04:13:03.066Z,38.04
2018-01-15T04:14:03.055Z,37.67
2018-01-15T04:15:03.298Z,38.14
2018-01-15T04:16:03.108Z,38.04
2018-01-15T04:17:03.043Z,37.95
2018-01-15T04:18:02.966Z,38.23
2018-01-15T04:19:03.218Z,38.23
2018-01-15T04:20:02.950Z,38.42
2018-01-15T04:21:02.909Z,38.52
2018-01-15T04:22:03.156Z,38.52
2018-01-15T04:23:02.873Z,38.61
2018-01-15T04:24:02.845Z,38.33
2018-01-15T04:25:02.826Z,38.71
2018-01-15T04:26:02.821Z,38.42
2018-01-15T04:27:03.055Z,38.33
2018-01-15T04:28:02.765Z,38.33
2018-01-15T04:29:02.763Z,38.52
2018-01-15T04:30:02.725Z,38.33
2018-01-15T04:31:02.713Z,38.14
2018-01-15T04:32:02.700Z,38.04
2018-01-15T04:33:02.665Z,37.76
2018-01-15T04:34:02.666Z,37.29
2018-01-15T04:35:02.624Z,37.1
2018-01-15T04:36:02.789Z,37.1
2018-01-15T04:37:02.590Z,36.72
2018-01-15T04:38:02.850Z,36.72
2018-01-15T04:39:02.545Z,36.91
2018-01-15T04:40:02.524Z,37.01
2018-01-15T04:41:02.520Z,37.01
2018-01-15T04:42:02.770Z,37.19
2018-01-15T04:43:02.465Z,37.57
2018-01-15T04:44:02.446Z,37.57
2018-01-15T04:45:02.712Z,37.01
2018-01-15T04:46:02.405Z,37.29
2018-01-15T04:47:02.384Z,36.72
2018-01-15T04:48:02.363Z,37.01
2018-01-15T04:49:02.615Z,37.01
2018-01-15T04:50:02.326Z,37.48
2018-01-15T04:51:02.303Z,37.19
2018-01-15T04:52:02.555Z,37.67
2018-01-15T04:53:02.263Z,37.29
2018-01-15T04:54:02.243Z,37.38
2018-01-15T04:55:02.496Z,37.48
2018-01-15T04:56:02.206Z,37.01
2018-01-15T04:57:02.195Z,37.01
2018-01-15T04:58:02.445Z,37.48
2018-01-15T04:59:02.416Z,37.29
2018-01-15T05:00:02.124Z,37.1
2018-01-15T05:01:02.110Z,37.1
2018-01-15T05:02:02.356Z,36.44
2018-01-15T05:03:02.080Z,36.25
2018-01-15T05:04:02.057Z,36.54
2018-01-15T05:05:02.292Z,36.54
2018-01-15T05:06:02.272Z,36.54
2018-01-15T05:07:02.005Z,36.44
2018-01-15T05:08:02.230Z,36.72
2018-01-15T05:09:02.212Z,37.1
2018-01-15T05:10:01.923Z,36.82
2018-01-15T05:11:02.170Z,37.1
2018-01-15T05:12:02.154Z,37.19
2018-01-15T05:13:01.863Z,37.76
2018-01-15T05:14:01.843Z,37.76
2018-01-15T05:15:01.825Z,37.76
2018-01-15T05:16:01.804Z,38.14
2018-01-15T05:17:01.797Z,37.95
2018-01-15T05:18:02.032Z,37.95
2018-01-15T05:19:02.012Z,37.76
2018-01-15T05:20:01.721Z,37.29
2018-01-15T05:21:01.700Z,36.91
2018-01-15T05:22:01.680Z,36.82
2018-01-15T05:23:01.661Z,37.01
2018-01-15T05:24:01.916Z,37.38
2018-01-15T05:25:01.893Z,37.76
2018-01-15T05:26:01.613Z,37.95
2018-01-15T05:27:01.580Z,38.23
2018-01-15T05:28:01.560Z,38.71
2018-01-15T05:29:01.838Z,38.71
2018-01-15T05:30:01.520Z,38.71
2018-01-15T05:31:01.504Z,38.52
2018-01-15T05:32:01.480Z,38.42
2018-01-15T05:33:01.733Z,38.04
2018-01-15T05:34:01.439Z,38.52
2018-01-15T05:35:01.420Z,38.99
2018-01-15T05:36:01.463Z,39.18
2018-01-15T05:37:01.380Z,39.75
2018-01-15T05:38:01.359Z,40.5
2018-01-15T05:39:01.339Z,40.5
2018-01-15T05:40:01.320Z,40.59
2018-01-15T05:41:01.592Z,40.59
2018-01-15T05:42:01.297Z,40.69
2018-01-15T05:43:01.261Z,41.44
2018-01-15T05:44:01.239Z,41.63
2018-01-15T05:45:01.491Z,42.3
2018-01-15T05:46:01.212Z,42.2
2018-01-15T05:47:01.450Z,42.39
2018-01-15T05:48:01.163Z,42.77
2018-01-15T05:49:01.141Z,42.58
2018-01-15T05:50:01.120Z,42.3
2018-01-15T05:51:01.100Z,42.11
2018-01-15T05:52:01.360Z,41.82
2018-01-15T05:53:01.060Z,42.2
2018-01-15T05:54:01.055Z,42.3
2018-01-15T05:55:01.289Z,42.2
2018-01-15T05:56:01.000Z,42.11
2018-01-15T05:57:00.980Z,41.92
2018-01-15T05:58:00.960Z,41.54
2018-01-15T05:59:00.940Z,41.63
2018-01-15T06:00:01.191Z,41.82
2018-01-15T06:01:01.172Z,41.63
2018-01-15T06:02:01.172Z,42.2
2018-01-15T06:03:00.883Z,42.77
2018-01-15T06:04:00.873Z,43.15
2018-01-15T06:05:00.822Z,43.52
2018-01-15T06:06:00.800Z,44.94
2018-01-15T06:07:00.782Z,46.26
2018-01-15T06:08:00.761Z,46.73
2018-01-15T06:09:01.011Z,47.86
2018-01-15T06:10:00.993Z,48.46
2018-01-15T06:11:00.702Z,49.11
2018-01-15T06:12:00.952Z,49.4
2018-01-15T06:13:00.674Z,49.49
2018-01-15T06:14:00.940Z,50.16
2018-01-15T06:15:00.896Z,50.53
2018-01-15T06:16:00.606Z,51.1
2018-01-15T06:17:00.878Z,51.01
2018-01-15T06:18:00.835Z,52.04
2018-01-15T06:19:00.545Z,51.95
2018-01-15T06:20:00.524Z,52.99
2018-01-15T06:21:00.513Z,52.8
2018-01-15T06:22:00.484Z,53.65
2018-01-15T06:23:00.466Z,54.88
2018-01-15T06:24:00.717Z,55.44
2018-01-15T06:25:00.426Z,56.39
2018-01-15T06:26:00.405Z,56.96
2018-01-15T06:27:00.387Z,57.05
2018-01-15T06:28:00.647Z,57.05
2018-01-15T06:29:00.349Z,57.9
2018-01-15T06:30:00.328Z,57.81
2018-01-15T06:31:00.308Z,57.9
2018-01-15T06:32:00.307Z,59.51
2018-01-15T06:33:00.541Z,59.32
2018-01-15T06:34:00.252Z,59.41
2018-01-15T06:35:00.229Z,59.89
2018-01-15T06:36:00.211Z,60.08
2018-01-15T06:37:00.462Z,60.74
2018-01-15T06:38:00.177Z,60.46
2018-01-15T06:39:00.152Z,60.36
2018-01-15T06:40:00.410Z,60.55
2018-01-15T06:41:00.114Z,61.02
2018-01-15T06:42:00.096Z,61.49
2018-01-15T06:43:00.346Z,61.87
2018-01-15T06:44:00.324Z,62.34
2018-01-15T06:45:00.054Z,61.77
2018-01-15T06:46:00.022Z,61.96
2018-01-15T06:47:00.016Z,62.72
2018-01-15T06:48:03.530Z,62.81
2018-01-15T06:49:00.229Z,63.57
2018-01-15T06:50:00.208Z,63.67
2018-01-15T06:51:00.189Z,63.29
2018-01-15T06:51:59.899Z,63.29
2018-01-15T06:52:59.881Z,63.48
2018-01-15T06:54:00.225Z,63.95
2018-01-15T06:54:59.842Z,63.76
2018-01-15T06:55:59.822Z,64.61
2018-01-15T06:56:59.805Z,64.7
2018-01-15T06:57:59.783Z,64.61
2018-01-15T06:58:59.765Z,65.17
2018-01-15T07:00:00.026Z,64.61
2018-01-15T07:01:00.008Z,64.42
2018-01-15T07:01:59.707Z,64.32
2018-01-15T07:02:59.686Z,65.08
2018-01-15T07:03:59.668Z,64.61
2018-01-15T07:04:59.922Z,64.89
2018-01-15T07:05:59.630Z,64.79
2018-01-15T07:06:59.879Z,64.32
2018-01-15T07:07:59.745Z,63.95
2018-01-15T07:08:59.843Z,63.48
2018-01-15T07:09:59.752Z,63.76
2018-01-15T07:10:59.533Z,63.95
2018-01-15T07:11:59.782Z,63.95
2018-01-15T07:12:59.494Z,64.04
2018-01-15T07:13:59.492Z,63.76
2018-01-15T07:14:59.454Z,63.57
2018-01-15T07:15:59.712Z,63.48
2018-01-15T07:17:00.002Z,62.91
2018-01-15T07:17:59.485Z,63
2018-01-15T07:18:59.463Z,62.72
2018-01-15T07:19:59.357Z,62.62
2018-01-15T07:20:59.337Z,61.49
2018-01-15T07:21:59.654Z,60.74
2018-01-15T07:22:59.319Z,60.08
2018-01-15T07:23:59.279Z,59.13
2018-01-15T07:24:59.536Z,58.56
2018-01-15T07:25:59.244Z,59.03
2018-01-15T07:26:59.220Z,59.13
2018-01-15T07:27:59.480Z,58.94
2018-01-15T07:28:59.183Z,58.84
2018-01-15T07:29:59.217Z,59.32
2018-01-15T07:30:59.144Z,59.98
2018-01-15T07:31:59.393Z,60.64
2018-01-15T07:32:59.117Z,61.11
2018-01-15T07:33:59.084Z,61.02
2018-01-15T07:34:59.076Z,61.3
2018-01-15T07:35:59.060Z,61.58
2018-01-15T07:36:59.031Z,61.87
2018-01-15T07:37:59.007Z,61.96
2018-01-15T07:38:59.002Z,61.21
2018-01-15T07:39:58.969Z,61.3
2018-01-15T07:40:59.219Z,61.3
2018-01-15T07:41:58.929Z,61.68
2018-01-15T07:42:58.910Z,61.4
2018-01-15T07:43:58.893Z,61.58
2018-01-15T07:44:58.870Z,61.4
2018-01-15T07:45:59.127Z,61.21
2018-01-15T07:46:58.831Z,61.21
2018-01-15T07:47:59.092Z,62.15
2018-01-15T07:48:58.796Z,62.06
2018-01-15T07:49:58.777Z,62.91
2018-01-15T07:50:59.030Z,63.1
2018-01-15T07:51:59.032Z,63.38
2018-01-15T07:52:58.984Z,63.57
2018-01-15T07:53:58.710Z,63.67
2018-01-15T07:54:58.680Z,64.32
2018-01-15T07:55:58.664Z,64.7
2018-01-15T07:56:58.908Z,64.04
2018-01-15T07:57:58.621Z,64.61
2018-01-15T07:58:58.601Z,64.61
2018-01-15T07:59:58.580Z,64.51
2018-01-15T08:00:58.832Z,64.51
2018-01-15T08:01:58.555Z,64.42
2018-01-15T08:02:58.792Z,64.61
2018-01-15T08:03:58.504Z,64.61
2018-01-15T08:04:58.756Z,64.32
2018-01-15T08:05:58.474Z,64.32
2018-01-15T08:06:58.721Z,64.32
2018-01-15T08:07:58.427Z,64.14
2018-01-15T08:08:58.713Z,63.67
2018-01-15T08:09:58.388Z,63.19
2018-01-15T08:10:58.638Z,62.81
2018-01-15T08:11:58.350Z,62.81
2018-01-15T08:12:58.603Z,61.68
2018-01-15T08:13:58.312Z,61.49
2018-01-15T08:14:58.291Z,61.3
2018-01-15T08:15:58.562Z,60.74
2018-01-15T08:16:58.254Z,60.27
2018-01-15T08:17:58.507Z,60.27
2018-01-15T08:18:58.216Z,60.46
2018-01-15T08:19:58.467Z,60.93
2018-01-15T08:20:58.180Z,60.8
2018-01-15T08:21:58.156Z,60.08
2018-01-15T08:22:58.138Z,59.79
2018-01-15T08:23:58.117Z,60.36
2018-01-15T08:24:58.098Z,60.36
2018-01-15T08:25:58.349Z,60.64
2018-01-15T08:26:58.058Z,60.64
2018-01-15T08:27:58.040Z,60.27
2018-01-15T08:28:58.025Z,60.36
2018-01-15T08:29:58.006Z,60.83
2018-01-15T08:30:57.980Z,60.74
2018-01-15T08:31:57.962Z,60.08
2018-01-15T08:32:58.263Z,60.08
2018-01-15T08:33:57.922Z,60.27
2018-01-15T08:34:57.905Z,59.79
2018-01-15T08:35:57.883Z,59.41
2018-01-15T08:36:57.884Z,59.79
2018-01-15T08:37:57.845Z,59.51
2018-01-15T08:38:57.826Z,59.7
2018-01-15T08:39:58.096Z,59.13
2018-01-15T08:40:57.787Z,59.22
2018-01-15T08:41:57.881Z,59.22
2018-01-15T08:42:58.020Z,59.03
2018-01-15T08:43:57.726Z,59.22
2018-01-15T08:44:57.709Z,59.51
2018-01-15T08:45:57.995Z,59.41
2018-01-15T08:46:57.792Z,59.41
2018-01-15T08:47:57.649Z,60.08
2018-01-15T08:48:57.632Z,60.17
2018-01-15T08:49:57.891Z,60.83
2018-01-15T08:50:57.595Z,61.68
2018-01-15T08:51:57.572Z,61.87
2018-01-15T08:52:57.854Z,62.44
2018-01-15T08:53:57.800Z,61.49
2018-01-15T08:54:57.514Z,61.11
2018-01-15T08:55:57.494Z,60.55
2018-01-15T08:56:57.804Z,61.58
2018-01-15T08:57:57.730Z,61.96
2018-01-15T08:58:57.433Z,62.44
2018-01-15T08:59:57.701Z,62.81
2018-01-15T09:00:57.429Z,63.67
2018-01-15T09:01:57.374Z,64.04
2018-01-15T09:02:57.415Z,63.95
2018-01-15T09:03:57.337Z,64.23
2018-01-15T09:04:57.317Z,64.51
2018-01-15T09:05:57.313Z,64.61
2018-01-15T09:06:57.278Z,64.04
2018-01-15T09:07:57.259Z,64.89
2018-01-15T09:08:57.240Z,65.08
2018-01-15T09:09:57.224Z,64.89
2018-01-15T09:10:57.203Z,64.89
2018-01-15T09:11:57.181Z,64.7
2018-01-15T09:12:57.454Z,64.98
2018-01-15T09:13:57.141Z,65.55
2018-01-15T09:14:57.123Z,65.65
2018-01-15T09:15:57.478Z,66.41
2018-01-15T09:16:57.650Z,67.07
2018-01-15T09:17:57.335Z,66.97
2018-01-15T09:18:57.044Z,67.16
2018-01-15T09:19:57.297Z,67.07
2018-01-15T09:20:57.005Z,66.5
2018-01-15T09:21:56.988Z,67.16
2018-01-15T09:22:57.238Z,66.97
2018-01-15T09:23:56.967Z,67.44
2018-01-15T09:24:57.199Z,66.88
2018-01-15T09:25:56.910Z,67.07
2018-01-15T09:26:56.891Z,66.97
2018-01-15T09:27:56.871Z,67.16
2018-01-15T09:28:56.875Z,67.72
2018-01-15T09:29:56.843Z,67.82
2018-01-15T09:30:56.814Z,67.91
2018-01-15T09:31:57.068Z,67.91
2018-01-15T09:32:56.796Z,68.95
2018-01-15T09:33:57.024Z,69.14
2018-01-15T09:34:56.735Z,68.29
2018-01-15T09:35:56.717Z,68.86
2018-01-15T09:36:56.698Z,68.95
2018-01-15T09:37:56.679Z,69.33
2018-01-15T09:38:56.657Z,68.95
2018-01-15T09:39:56.639Z,68.48
2018-01-15T09:40:56.624Z,67.91
2018-01-15T09:41:56.601Z,67.25
2018-01-15T09:42:56.582Z,68.1
2018-01-15T09:43:56.561Z,67.91
2018-01-15T09:44:56.812Z,68.39
2018-01-15T09:45:56.524Z,69.05
2018-01-15T09:46:56.521Z,68.57
2018-01-15T09:47:56.486Z,69.14
2018-01-15T09:48:56.466Z,69.05
2018-01-15T09:49:56.448Z,69.71
2018-01-15T09:50:56.428Z,69.33
2018-01-15T09:51:56.684Z,69.43
2018-01-15T09:52:56.425Z,69.43
2018-01-15T09:53:56.661Z,69.33
2018-01-15T09:54:56.351Z,69.24
2018-01-15T09:55:56.609Z,69.43
2018-01-15T09:56:56.325Z,69.33
2018-01-15T09:57:56.295Z,69.33
2018-01-15T09:58:56.292Z,69.33
2018-01-15T09:59:56.532Z,69.71
2018-01-15T10:00:56.252Z,69.24
2018-01-15T10:01:56.244Z,69.71
2018-01-15T10:02:56.197Z,69.9
2018-01-15T10:03:56.501Z,70.09
2018-01-15T10:04:56.428Z,70.47
2018-01-15T10:05:56.140Z,70.28
2018-01-15T10:06:56.119Z,70.75
2018-01-15T10:07:56.100Z,70.75
2018-01-15T10:08:56.083Z,70.37
2018-01-15T10:09:56.389Z,70.56
2018-01-15T10:10:56.065Z,70.37
2018-01-15T10:11:56.024Z,71.12
2018-01-15T10:12:56.014Z,71.31
2018-01-15T10:13:56.258Z,71.41
2018-01-15T10:14:55.969Z,72.55
2018-01-15T10:15:55.959Z,72.3
2018-01-15T10:16:55.975Z,71.98
2018-01-15T10:17:55.910Z,73.02
2018-01-15T10:18:55.926Z,72.83
2018-01-15T10:19:56.142Z,73.39
2018-01-15T10:20:55.879Z,74.05
2018-01-15T10:21:55.834Z,72.73
2018-01-15T10:22:56.106Z,72.86
2018-01-15T10:23:56.066Z,72.73
2018-01-15T10:24:55.777Z,72.83
2018-01-15T10:25:56.038Z,72.86
2018-01-15T10:26:55.739Z,72.86
2018-01-15T10:27:55.998Z,72.96
2018-01-15T10:28:55.967Z,73.62
2018-01-15T10:29:55.681Z,74.28
2018-01-15T10:30:55.662Z,74.57
2018-01-15T10:31:55.644Z,75.04
2018-01-15T10:32:55.624Z,74.66
2018-01-15T10:33:55.886Z,75.79
2018-01-15T10:34:55.585Z,76.74
2018-01-15T10:35:55.567Z,76.93
2018-01-15T10:36:55.547Z,77.4
2018-01-15T10:37:55.812Z,78.16
2018-01-15T10:38:55.780Z,78.16
2018-01-15T10:39:55.491Z,78.06
2018-01-15T10:40:55.751Z,79
2018-01-15T10:41:55.473Z,78.63
2018-01-15T10:42:55.435Z,79
2018-01-15T10:43:55.690Z,80.71
2018-01-15T10:44:55.668Z,80.9
2018-01-15T10:45:55.377Z,80.43
2018-01-15T10:46:55.684Z,80.14
2018-01-15T10:47:55.610Z,80.05
2018-01-15T10:48:55.323Z,81.27
2018-01-15T10:49:55.304Z,83.17
2018-01-15T10:50:55.288Z,83.17
2018-01-15T10:51:55.280Z,82.88
2018-01-15T10:52:55.269Z,82.69
2018-01-15T10:53:55.229Z,83.07
2018-01-15T10:54:55.209Z,83.07
2018-01-15T10:55:55.475Z,84.11
2018-01-15T10:56:55.172Z,83.17
2018-01-15T10:57:55.154Z,83.17
2018-01-15T10:58:55.434Z,83.54
2018-01-15T10:59:55.118Z,84.2
2018-01-15T11:00:55.370Z,83.26
2018-01-15T11:01:55.077Z,83.17
2018-01-15T11:02:55.076Z,83.83
2018-01-15T11:03:55.058Z,83.26
2018-01-15T11:04:55.023Z,83.92
2018-01-15T11:05:55.279Z,84.06
2018-01-15T11:06:55.002Z,84.01
2018-01-15T11:07:54.977Z,84.25
2018-01-15T11:08:54.949Z,84.58
2018-01-15T11:09:54.930Z,83.83
2018-01-15T11:10:54.912Z,84.25
2018-01-15T11:11:54.894Z,85
2018-01-15T11:12:55.148Z,85.47
2018-01-15T11:13:55.125Z,85.28
2018-01-15T11:14:54.838Z,84.91
2018-01-15T11:15:55.094Z,84.72
2018-01-15T11:16:54.801Z,85.38
2018-01-15T11:17:54.789Z,85
2018-01-15T11:18:55.057Z,86.14
2018-01-15T11:19:54.744Z,86.14
2018-01-15T11:20:55.019Z,86.23
2018-01-15T11:21:54.986Z,85.47
2018-01-15T11:22:54.692Z,85.57
2018-01-15T11:23:54.940Z,85.85
2018-01-15T11:24:54.652Z,85.95
2018-01-15T11:25:54.917Z,86.23
2018-01-15T11:26:54.637Z,87.08
2018-01-15T11:27:54.598Z,87.08
2018-01-15T11:28:54.580Z,87.55
2018-01-15T11:29:54.831Z,87.55
2018-01-15T11:30:54.548Z,86.99
2018-01-15T11:31:54.525Z,88.31
2018-01-15T11:32:54.506Z,87.84
2018-01-15T11:33:54.489Z,87.46
2018-01-15T11:34:54.749Z,87.74
2018-01-15T11:35:54.463Z,88.22
2018-01-15T11:36:54.707Z,88.03
2018-01-15T11:37:54.417Z,88.22
2018-01-15T11:38:54.400Z,89.07
2018-01-15T11:39:54.380Z,88.69
2018-01-15T11:40:54.371Z,89.64
2018-01-15T11:41:54.347Z,89.92
2018-01-15T11:42:54.334Z,90.39
2018-01-15T11:43:54.310Z,89.54
2018-01-15T11:44:54.292Z,90.01
2018-01-15T11:45:54.272Z,89.92
2018-01-15T11:46:54.530Z,89.64
2018-01-15T11:47:54.254Z,90.01
2018-01-15T11:48:54.219Z,89.64
2018-01-15T11:49:54.200Z,90.96
2018-01-15T11:50:54.451Z,90.68
2018-01-15T11:51:54.436Z,90.2
2018-01-15T11:52:54.148Z,90.01
2018-01-15T11:53:54.135Z,90.2
2018-01-15T11:54:54.381Z,90.77
2018-01-15T11:55:54.363Z,90.2
2018-01-15T11:56:54.074Z,90.2
2018-01-15T11:57:54.058Z,90.11
2018-01-15T11:58:54.039Z,90.2
2018-01-15T11:59:54.026Z,90.3
2018-01-15T12:00:54.003Z,90.68
2018-01-15T12:01:53.986Z,91.34
2018-01-15T12:02:53.972Z,91.53
2018-01-15T12:03:53.948Z,90.91
2018-01-15T12:04:53.931Z,91.24
2018-01-15T12:05:53.911Z,91.43
2018-01-15T12:06:53.901Z,92.19
2018-01-15T12:07:53.896Z,91.39
2018-01-15T12:08:54.129Z,92.57
2018-01-15T12:09:54.116Z,92.14
2018-01-15T12:10:53.824Z,92
2018-01-15T12:11:54.076Z,92.1
2018-01-15T12:12:53.788Z,91.67
2018-01-15T12:13:53.770Z,91.81
2018-01-15T12:14:53.752Z,92.24
2018-01-15T12:15:53.751Z,92.99
2018-01-15T12:16:53.750Z,93.04
2018-01-15T12:17:53.701Z,93.32
2018-01-15T12:18:53.953Z,92.9
2018-01-15T12:19:53.934Z,93.09
2018-01-15T12:20:53.978Z,92.8
2018-01-15T12:21:53.912Z,92.85
2018-01-15T12:22:53.884Z,92.71
2018-01-15T12:23:53.591Z,92.76
2018-01-15T12:24:53.853Z,92.99
2018-01-15T12:25:53.570Z,93.09
2018-01-15T12:26:53.538Z,93.18
2018-01-15T12:27:53.519Z,93.32
2018-01-15T12:28:53.501Z,93.42
2018-01-15T12:29:53.485Z,93.85
2018-01-15T12:30:53.465Z,94.27
2018-01-15T12:31:53.719Z,93.32
2018-01-15T12:32:53.443Z,93.13
2018-01-15T12:33:53.412Z,93.8
2018-01-15T12:34:53.665Z,93.89
2018-01-15T12:35:53.670Z,94.08
2018-01-15T12:36:53.627Z,93.51
2018-01-15T12:37:53.366Z,93.23
2018-01-15T12:38:53.596Z,93.04
2018-01-15T12:39:53.575Z,93.23
2018-01-15T12:40:53.558Z,93.51
2018-01-15T12:41:53.269Z,93.75
2018-01-15T12:42:53.526Z,93.94
2018-01-15T12:43:53.244Z,94.32
2018-01-15T12:44:53.490Z,94.23
2018-01-15T12:45:53.474Z,94.04
2018-01-15T12:46:53.182Z,94.6
2018-01-15T12:47:53.434Z,94.04
2018-01-15T12:48:53.146Z,93.85
2018-01-15T12:49:53.126Z,94.51
2018-01-15T12:50:53.386Z,95.07
2018-01-15T12:51:53.092Z,95.36
2018-01-15T12:52:53.074Z,95.36
2018-01-15T12:53:53.058Z,95.17
2018-01-15T12:54:53.041Z,95.17